»·PEaware :: UAL1973 KSFO-KSAN

UAL1973 :: KSFO-KSAN

FLIGHT INFORMATION

Flight Status: Arrived
Operator:
United Airlines
More flights by this operator :: More flights under this callsign
Pilot: Alfredo R. (12181)
Aircraft: BOEING 737-800
(B738)
More flights by this aircraft type
Origin: KSFO San Francisco Intl
United States
Destination: KSAN San Diego Intl-Lindbergh
United States
More flights between these airports :: More routes between these airports
Route: +OFFSH1 MCKEY LAX COMIX2
File this flight plan on PilotEdge
Remarks:
Altitude:
(Current/Filed)
35,000ft
Speed:
(Current/Filed)
425kts
Departed: 19-Dec-18 03:41 PM
Arrived: 19-Dec-18 04:56 PM
Distance/Time
Traveled:
387nm/1:15
Distance/Time
To Go:
Arrived

Flight Plot

Page will automatically refresh every two minutes.


Map Options




Map Legend


Flown Route
Filed Route
Departure Airport
Arrival Airport
Navaid (VOR, NDB)
Fix

Horizontal Profiles

Position Reports

Time Latitude Longitude Heading Altitude Ground
Speed
19-Dec-18 15:17 37.619750 -122.384007 213 30ft 0kts
19-Dec-18 15:18 37.619750 -122.384007 213 30ft 0kts
19-Dec-18 15:19 37.619750 -122.384007 213 30ft 0kts
19-Dec-18 15:20 37.619750 -122.384007 213 30ft 0kts
19-Dec-18 15:21 37.619750 -122.384007 213 30ft 0kts
19-Dec-18 15:22 37.619750 -122.384007 213 30ft 0kts
19-Dec-18 15:23 37.619750 -122.384007 213 30ft 0kts
19-Dec-18 15:24 37.619751 -122.384007 213 31ft 0kts
19-Dec-18 15:25 37.619751 -122.384007 213 31ft 0kts
19-Dec-18 15:26 37.619751 -122.384007 213 31ft 0kts
19-Dec-18 15:27 37.620035 -122.383744 219 30ft 2kts
19-Dec-18 15:28 37.620456 -122.383926 116 30ft 0kts
19-Dec-18 15:29 37.620655 -122.384393 118 30ft 0kts
19-Dec-18 15:30 37.620655 -122.384393 118 30ft 0kts
19-Dec-18 15:31 37.620655 -122.384393 118 30ft 0kts
19-Dec-18 15:32 37.620593 -122.384244 117 30ft 2kts
19-Dec-18 15:33 37.619848 -122.382475 117 30ft 8kts
19-Dec-18 15:34 37.618165 -122.379640 157 30ft 12kts
19-Dec-18 15:35 37.614911 -122.380761 207 30ft 14kts
19-Dec-18 15:36 37.611110 -122.383281 207 30ft 16kts
19-Dec-18 15:37 37.608494 -122.383918 118 30ft 5kts
19-Dec-18 15:38 37.608457 -122.383830 118 30ft 0kts
19-Dec-18 15:39 37.610078 -122.381476 27 30ft 31kts
19-Dec-18 15:40 37.640019 -122.362666 15 787ft 172kts
19-Dec-18 15:41 37.692191 -122.374289 317 2731ft 228kts
19-Dec-18 15:42 37.686082 -122.447558 218 5571ft 241kts
19-Dec-18 15:43 37.643934 -122.518364 245 8267ft 268kts
19-Dec-18 15:44 37.610375 -122.602291 232 10535ft 300kts
19-Dec-18 15:45 37.550043 -122.671407 195 13344ft 316kts
19-Dec-18 15:46 37.459788 -122.662335 176 16206ft 336kts
19-Dec-18 15:47 37.366369 -122.645249 177 18780ft 349kts
19-Dec-18 15:48 37.268895 -122.627541 178 20833ft 365kts
19-Dec-18 15:49 37.166107 -122.608926 178 22705ft 382kts
19-Dec-18 15:50 37.059609 -122.589644 178 24519ft 395kts
19-Dec-18 15:51 36.949797 -122.569448 176 26277ft 406kts
19-Dec-18 15:52 36.838534 -122.539913 174 27877ft 416kts
19-Dec-18 15:53 36.724434 -122.510250 174 29383ft 423kts
19-Dec-18 15:55 36.608568 -122.480273 174 30686ft 432kts
19-Dec-18 15:56 36.490813 -122.449613 171 32073ft 438kts
19-Dec-18 15:57 36.383543 -122.374121 140 33456ft 463kts
19-Dec-18 15:58 36.299633 -122.253238 135 34700ft 468kts
19-Dec-18 15:59 36.214739 -122.129606 134 35212ft 481kts
19-Dec-18 16:00 36.128830 -122.005016 134 35218ft 481kts
19-Dec-18 16:01 36.042118 -121.879758 134 35220ft 481kts
19-Dec-18 16:02 35.955276 -121.754800 134 35222ft 481kts
19-Dec-18 16:03 35.868170 -121.629951 134 35221ft 483kts
19-Dec-18 16:04 35.780663 -121.504988 134 35225ft 483kts
19-Dec-18 16:05 35.693771 -121.381320 134 35225ft 480kts
19-Dec-18 16:06 35.606798 -121.257911 134 35217ft 480kts
19-Dec-18 16:07 35.519144 -121.134023 134 35217ft 482kts
19-Dec-18 16:08 35.437612 -121.003067 127 35218ft 486kts
19-Dec-18 16:09 35.361075 -120.867320 127 35166ft 485kts
19-Dec-18 16:10 35.284361 -120.732256 127 35166ft 486kts
19-Dec-18 16:11 35.207333 -120.597216 127 35169ft 483kts
19-Dec-18 16:12 35.130248 -120.462569 127 35170ft 484kts
19-Dec-18 16:12 35.066040 -120.350798 127 35180ft 484kts
19-Dec-18 16:14 34.975682 -120.193899 127 35173ft 487kts
19-Dec-18 16:14 34.911016 -120.082073 127 35171ft 487kts
19-Dec-18 16:16 34.820279 -119.925770 127 35180ft 486kts
19-Dec-18 16:16 34.755496 -119.814501 127 35184ft 485kts
19-Dec-18 16:17 34.677525 -119.681221 127 35164ft 486kts
19-Dec-18 16:18 34.599532 -119.548357 127 35172ft 485kts
19-Dec-18 16:19 34.521172 -119.415380 127 35182ft 486kts
19-Dec-18 16:20 34.444596 -119.285799 127 35172ft 486kts
19-Dec-18 16:21 34.365826 -119.152902 127 35175ft 489kts
19-Dec-18 16:22 34.287079 -119.020593 127 35167ft 488kts
19-Dec-18 16:23 34.208052 -118.888323 127 35171ft 483kts
19-Dec-18 16:24 34.129262 -118.756988 127 35179ft 484kts
19-Dec-18 16:25 34.050183 -118.625685 127 35173ft 486kts
19-Dec-18 16:26 33.970903 -118.494512 127 35109ft 486kts
19-Dec-18 16:27 33.887919 -118.372912 135 33460ft 469kts
19-Dec-18 16:28 33.801043 -118.261058 135 31276ft 465kts
19-Dec-18 16:29 33.712920 -118.145999 134 28773ft 470kts
19-Dec-18 16:30 33.624408 -118.029849 134 26287ft 480kts
19-Dec-18 16:31 33.534428 -117.913588 136 23800ft 482kts
19-Dec-18 16:32 33.439133 -117.803804 137 21606ft 482kts
19-Dec-18 16:33 33.340601 -117.698682 138 19637ft 475kts
19-Dec-18 16:34 33.243240 -117.595008 138 17796ft 455kts
19-Dec-18 16:35 33.154120 -117.501227 138 16097ft 405kts
19-Dec-18 16:36 33.070155 -117.427526 145 14405ft 356kts
19-Dec-18 16:37 32.993361 -117.363400 144 12782ft 323kts
19-Dec-18 16:38 32.922163 -117.303768 145 11294ft 308kts
19-Dec-18 16:39 32.855562 -117.248316 145 10043ft 284kts
19-Dec-18 16:40 32.805532 -117.182927 105 8887ft 274kts
19-Dec-18 16:41 32.786504 -117.099483 102 7683ft 253kts
19-Dec-18 16:42 32.767112 -117.024119 104 6533ft 243kts
19-Dec-18 16:43 32.748918 -116.949688 104 5460ft 229kts
19-Dec-18 16:44 32.733349 -116.883367 104 4981ft 206kts
19-Dec-18 16:45 32.718566 -116.819602 107 4980ft 206kts
19-Dec-18 16:46 32.676597 -116.817948 245 5008ft 189kts
19-Dec-18 16:47 32.669549 -116.875781 282 4674ft 183kts
19-Dec-18 16:48 32.676743 -116.934350 274 3834ft 181kts
19-Dec-18 16:49 32.684764 -116.987291 285 2982ft 160kts
19-Dec-18 16:50 32.696629 -117.037770 286 2134ft 159kts
19-Dec-18 16:51 32.708134 -117.085061 286 1830ft 151kts
19-Dec-18 16:52 32.718819 -117.128939 286 814ft 138kts
19-Dec-18 16:53 32.729562 -117.173206 287 198ft 136kts
19-Dec-18 16:54 32.735326 -117.196978 285 17ft 41kts
19-Dec-18 16:55 32.735689 -117.201775 222 17ft 5kts
19-Dec-18 16:56 32.735024 -117.204157 203 17ft 5kts
19-Dec-18 16:57 32.734713 -117.204179 175 17ft 0kts
19-Dec-18 16:58 32.734713 -117.204179 175 17ft 0kts
19-Dec-18 16:59 32.734713 -117.204179 175 17ft 0kts
19-Dec-18 17:00 32.734713 -117.204179 175 17ft 0kts
19-Dec-18 17:01 32.734713 -117.204179 175 17ft 0kts
19-Dec-18 17:02 32.734713 -117.204179 175 17ft 0kts

Navigation Log

Ident Type
Flight plan parsing failed, navigation log unavailable